Time;durP1;ratioP1;P1;durP2;ratioP2;P2;SDS_P1;SDS_P2;PMS_P1;PMS_P2;Temp;Humidity;BMP_temperature;BMP_pressure;BME280_temperature;BME280_humidity;BME280_pressure;Samples;Min_cycle;Max_cycle;Signal;HPM_P1;HPM_P2
2022/04/15 00:00:36;;;;;;;11.73;5.97;;;;;;;8.75;71.59;102397.69;5034996;28;20381;-80
2022/04/15 00:03:01;;;;;;;11.85;5.85;;;;;;;8.73;71.63;102398.47;5034683;28;20492;-80
2022/04/15 00:05:34;;;;;;;12.67;6.00;;;;;;;8.71;71.71;102395.88;5035091;28;20112;-80
2022/04/15 00:08:00;;;;;;;12.20;6.22;;;;;;;8.65;71.71;102395.78;5034603;28;20049;-80
2022/04/15 00:10:28;;;;;;;11.97;5.67;;;;;;;8.63;71.73;102394.88;5035169;28;20025;-80
2022/04/15 00:12:54;;;;;;;11.52;5.70;;;;;;;8.57;71.67;102392.16;5034450;28;20319;-80
2022/04/15 00:15:19;;;;;;;10.73;5.43;;;;;;;8.49;72.00;102394.66;5024423;28;20034;-80
2022/04/15 00:17:45;;;;;;;11.30;5.60;;;;;;;8.44;72.08;102394.53;5014667;28;20026;-80
2022/04/15 00:20:11;;;;;;;10.63;5.60;;;;;;;8.39;72.29;102393.56;5015245;28;20022;-80
2022/04/15 00:22:36;;;;;;;9.15;5.10;;;;;;;8.35;72.02;102386.56;5014591;28;20418;-80
2022/04/15 00:25:02;;;;;;;10.68;5.22;;;;;;;8.33;72.41;102390.88;5014804;28;20030;-80
2022/04/15 00:27:27;;;;;;;10.50;5.50;;;;;;;8.27;72.41;102391.63;5015024;28;20039;-80
2022/04/15 00:29:53;;;;;;;11.30;5.32;;;;;;;8.25;72.50;102397.59;5014132;28;20540;-80
2022/04/15 00:32:18;;;;;;;10.23;5.10;;;;;;;8.20;72.24;102392.31;5014936;28;20028;-80
2022/04/15 00:34:43;;;;;;;11.07;5.67;;;;;;;8.18;72.18;102399.19;5014669;28;20037;-80
2022/04/15 00:37:08;;;;;;;11.67;5.53;;;;;;;8.15;72.63;102407.75;5014432;28;20025;-80
2022/04/15 00:39:35;;;;;;;10.43;5.40;;;;;;;8.13;72.72;102409.44;5014794;28;20390;-80
2022/04/15 00:42:00;;;;;;;9.82;5.43;;;;;;;8.09;72.60;102409.34;5014135;28;20034;-79
2022/04/15 00:44:25;;;;;;;11.63;5.70;;;;;;;8.03;72.80;102407.50;5033541;28;20564;-80
2022/04/15 00:46:51;;;;;;;11.38;5.50;;;;;;;8.00;73.20;102420.38;5033867;28;20557;-80
2022/04/15 00:49:16;;;;;;;9.25;5.03;;;;;;;7.96;73.10;102416.00;5034018;28;20061;-80
2022/04/15 00:51:43;;;;;;;10.30;5.30;;;;;;;7.90;73.39;102411.56;5034333;28;20044;-80
2022/04/15 00:54:11;;;;;;;9.73;5.15;;;;;;;7.86;73.01;102408.03;5034179;28;20022;-80
2022/04/15 00:56:38;;;;;;;9.15;4.97;;;;;;;7.82;73.14;102413.97;5033489;28;20029;-80
2022/04/15 00:59:05;;;;;;;10.45;5.47;;;;;;;7.79;73.22;102413.91;5034381;28;20101;-80
2022/04/15 01:01:31;;;;;;;8.77;4.90;;;;;;;7.76;73.46;102413.84;5034000;28;20470;-80
2022/04/15 01:03:57;;;;;;;8.97;4.97;;;;;;;7.75;73.32;102416.38;5021815;28;20053;-80
2022/04/15 01:06:28;;;;;;;9.75;4.90;;;;;;;7.70;73.56;102411.13;5014093;28;20108;-80
2022/04/15 01:08:58;;;;;;;10.30;4.88;;;;;;;7.69;73.60;102414.53;5013517;28;20022;-80
2022/04/15 01:11:26;;;;;;;10.40;5.18;;;;;;;7.65;73.50;102416.19;5024402;28;20446;-80
2022/04/15 01:13:53;;;;;;;8.73;4.70;;;;;;;7.61;73.46;102422.13;5033338;28;20041;-80
2022/04/15 01:16:20;;;;;;;10.13;5.03;;;;;;;7.57;73.71;102426.34;5033963;28;20037;-80
2022/04/15 01:18:46;;;;;;;9.40;5.10;;;;;;;7.55;73.81;102422.00;5033254;28;20031;-80
2022/04/15 01:21:12;;;;;;;10.60;4.97;;;;;;;7.51;73.83;102428.81;5033712;28;20034;-80
2022/04/15 01:23:39;;;;;;;8.38;4.55;;;;;;;7.51;73.94;102425.34;5033409;28;20053;-80
2022/04/15 01:26:05;;;;;;;8.65;4.60;;;;;;;7.50;73.92;102429.66;5033046;28;20128;-80
2022/04/15 01:28:30;;;;;;;8.83;4.80;;;;;;;7.47;74.00;102434.72;5033550;28;20116;-80
2022/04/15 01:30:55;;;;;;;9.60;4.60;;;;;;;7.46;73.90;102432.13;5033524;28;20021;-80
2022/04/15 01:33:20;;;;;;;8.27;4.50;;;;;;;7.44;73.89;102434.66;5033402;28;20189;-80
2022/04/15 01:35:46;;;;;;;9.70;5.10;;;;;;;7.44;74.13;102437.25;5024937;28;20025;-80
2022/04/15 01:38:14;;;;;;;10.87;5.00;;;;;;;7.40;74.12;102433.72;5014581;28;20052;-80
2022/04/15 01:40:40;;;;;;;8.95;4.90;;;;;;;7.38;73.88;102432.81;5032500;28;20049;-79
2022/04/15 01:43:05;;;;;;;8.37;4.57;;;;;;;7.33;74.08;102437.00;5033304;28;20438;-80
2022/04/15 01:45:30;;;;;;;7.75;4.50;;;;;;;7.28;74.15;102433.41;5033129;28;20036;-80
2022/04/15 01:47:56;;;;;;;9.43;4.60;;;;;;;7.23;74.32;102441.06;5033307;28;20083;-80
2022/04/15 01:50:23;;;;;;;10.10;4.87;;;;;;;7.20;74.42;102443.59;5033156;28;20074;-80
2022/04/15 01:52:48;;;;;;;8.75;4.78;;;;;;;7.17;74.46;102447.78;5032668;28;20040;-80
2022/04/15 01:55:14;;;;;;;9.07;4.90;;;;;;;7.13;74.22;102449.41;5033413;28;20025;-80
2022/04/15 01:57:39;;;;;;;10.47;4.90;;;;;;;7.11;74.34;102445.91;5030908;28;20157;-80
2022/04/15 02:00:06;;;;;;;9.38;4.57;;;;;;;7.09;74.34;102445.03;5032742;28;20480;-80
2022/04/15 02:02:31;;;;;;;10.05;5.13;;;;;;;7.07;74.48;102444.13;5033426;28;20045;-80
2022/04/15 02:04:56;;;;;;;10.30;5.20;;;;;;;7.06;74.64;102450.13;5023112;28;20064;-80
2022/04/15 02:07:21;;;;;;;9.68;4.88;;;;;;;7.03;74.80;102455.19;5012801;28;20033;-80
2022/04/15 02:09:47;;;;;;;11.10;5.43;;;;;;;7.02;74.65;102450.84;5013027;28;20582;-80
2022/04/15 02:12:12;;;;;;;10.43;5.22;;;;;;;6.99;74.58;102446.50;5013235;28;20141;-81
2022/04/15 02:14:37;;;;;;;10.32;5.13;;;;;;;6.97;74.76;102449.88;5012247;28;20026;-80
2022/04/15 02:17:03;;;;;;;8.18;4.53;;;;;;;6.94;74.61;102461.88;5013001;28;20026;-81
2022/04/15 02:19:28;;;;;;;9.68;5.00;;;;;;;6.90;74.57;102457.44;5013351;28;20021;-80
2022/04/15 02:21:53;;;;;;;9.60;4.70;;;;;;;6.87;74.75;102459.94;5012290;28;20381;-81
2022/04/15 02:24:18;;;;;;;9.48;4.85;;;;;;;6.86;74.76;102465.97;5012893;28;20026;-80
2022/04/15 02:26:44;;;;;;;9.82;4.88;;;;;;;6.83;74.83;102460.72;5012271;28;20502;-80
2022/04/15 02:29:10;;;;;;;9.90;4.97;;;;;;;6.77;75.01;102464.00;5013741;28;20025;-80
2022/04/15 02:31:36;;;;;;;8.98;4.80;;;;;;;6.75;75.20;102465.66;5013068;28;20026;-81
2022/04/15 02:34:02;;;;;;;8.57;4.63;;;;;;;6.73;75.18;102471.63;5030719;28;20065;-80
2022/04/15 02:36:27;;;;;;;8.75;4.75;;;;;;;6.70;75.21;102471.53;5032349;28;20060;-81
2022/04/15 02:38:52;;;;;;;8.25;4.60;;;;;;;6.67;74.92;102480.09;5032482;28;20032;-81
2022/04/15 02:41:17;;;;;;;8.27;4.50;;;;;;;6.63;75.21;102473.06;5032402;28;20377;-81
2022/04/15 02:43:43;;;;;;;8.80;4.33;;;;;;;6.59;75.18;102468.66;5031452;28;20043;-81
2022/04/15 02:46:10;;;;;;;7.50;4.30;;;;;;;6.56;75.36;102466.88;5032452;28;20071;-80
2022/04/15 02:48:35;;;;;;;;;;;;;;;6.55;75.30;102472.00;5032653;28;20041;-80
2022/04/15 02:51:01;;;;;;;9.00;4.33;;;;;;;6.52;75.56;102470.22;5032449;28;19913;-80
2022/04/15 02:53:27;;;;;;;7.80;4.20;;;;;;;6.49;75.31;102470.13;5035464;28;20034;-81
2022/04/15 02:55:53;;;;;;;8.52;4.78;;;;;;;6.47;75.25;102475.22;5034141;28;20168;-80
2022/04/15 02:58:19;;;;;;;8.65;4.75;;;;;;;6.46;75.25;102470.03;5036828;28;20026;-80
2022/04/15 03:00:44;;;;;;;8.73;4.43;;;;;;;6.44;75.37;102474.28;5027807;28;20029;-81
2022/04/15 03:03:11;;;;;;;9.43;4.88;;;;;;;6.43;75.54;102472.50;5016225;28;20753;-80
2022/04/15 03:05:37;;;;;;;9.48;4.68;;;;;;;6.39;75.82;102473.28;5016541;28;20033;-81
2022/04/15 03:08:02;;;;;;;8.87;4.43;;;;;;;6.37;75.65;102477.50;5016285;28;20022;-81
2022/04/15 03:10:27;;;;;;;9.65;4.65;;;;;;;6.34;75.57;102470.56;5015941;28;20109;-80
2022/04/15 03:12:52;;;;;;;7.82;4.25;;;;;;;6.30;75.69;102474.78;5016406;28;20030;-81
2022/04/15 03:15:20;;;;;;;8.07;4.47;;;;;;;6.27;75.81;102478.94;5016562;28;20497;-81
2022/04/15 03:17:48;;;;;;;10.93;4.60;;;;;;;6.23;75.86;102472.81;5015663;28;20157;-80
2022/04/15 03:20:13;;;;;;;7.20;4.15;;;;;;;6.22;76.03;102472.78;5015040;28;20072;-81
2022/04/15 03:22:41;;;;;;;8.35;4.35;;;;;;;6.20;75.95;102471.88;5016309;28;20386;-81
2022/04/15 03:25:09;;;;;;;8.55;4.38;;;;;;;6.18;75.82;102479.56;5020660;28;20119;-81
2022/04/15 03:27:34;;;;;;;6.43;3.75;;;;;;;6.16;76.10;102471.78;5035713;28;20050;-81
2022/04/15 03:30:00;;;;;;;8.35;4.05;;;;;;;6.13;76.24;102468.25;5016779;28;20033;-80
2022/04/15 03:32:25;;;;;;;8.55;3.92;;;;;;;6.14;76.06;102472.56;5015695;28;20105;-81
2022/04/15 03:34:57;;;;;;;7.70;4.35;;;;;;;6.13;76.05;102474.28;5015756;28;20575;-81
2022/04/15 03:37:23;;;;;;;9.02;4.38;;;;;;;6.14;76.14;102482.88;5016019;28;20026;-81
2022/04/15 03:39:52;;;;;;;8.05;4.22;;;;;;;6.15;76.14;102485.50;5015013;28;20026;-81
2022/04/15 03:42:17;;;;;;;7.68;3.95;;;;;;;6.17;76.16;102478.69;5015983;28;20108;-80
2022/04/15 03:44:43;;;;;;;6.75;3.70;;;;;;;6.16;76.16;102478.66;5014963;28;20120;-81
2022/04/15 03:47:08;;;;;;;8.98;4.05;;;;;;;6.17;76.20;102481.25;5015659;28;20045;-81
2022/04/15 03:49:33;;;;;;;7.40;3.85;;;;;;;6.18;76.37;102483.00;5015663;28;20427;-81
2022/04/15 03:51:59;;;;;;;8.68;4.15;;;;;;;6.20;76.75;102487.34;5014981;28;20087;-80
2022/04/15 03:54:24;;;;;;;7.60;3.78;;;;;;;6.22;76.56;102498.59;5015734;28;20395;-80
2022/04/15 03:56:50;;;;;;;9.18;3.97;;;;;;;6.24;76.58;102490.06;5024498;28;20033;-81
2022/04/15 03:59:15;;;;;;;8.97;3.87;;;;;;;6.29;76.81;102491.06;5035066;28;20036;-81
2022/04/15 04:01:41;;;;;;;9.03;4.23;;;;;;;6.33;76.89;102498.06;5035273;28;20128;-81
2022/04/15 04:04:07;;;;;;;7.05;3.70;;;;;;;6.38;77.30;102500.75;5033478;22;20093;-81
2022/04/15 04:06:32;;;;;;;5.75;3.00;;;;;;;6.43;78.05;102503.47;5014778;28;20030;-81
2022/04/15 04:08:57;;;;;;;5.33;3.00;;;;;;;6.45;78.19;102504.38;5015222;28;20058;-81
2022/04/15 04:11:23;;;;;;;7.32;3.85;;;;;;;6.49;83.13;102507.09;5015463;28;20034;-81
2022/04/15 04:13:51;;;;;;;19.05;9.82;;;;;;;6.44;87.01;102507.78;5014676;28;20500;-81
2022/04/15 04:16:18;;;;;;;20.30;11.32;;;;;;;6.40;87.07;102516.28;5014956;28;20397;-81
2022/04/15 04:18:43;;;;;;;19.35;10.25;;;;;;;6.36;85.98;102514.44;5015121;28;20026;-81
2022/04/15 04:21:09;;;;;;;17.63;9.13;;;;;;;6.35;86.14;102518.75;5014920;28;20052;-81
2022/04/15 04:23:35;;;;;;;16.57;8.10;;;;;;;6.34;86.39;102509.25;5014690;28;20029;-81
2022/04/15 04:26:04;;;;;;;17.95;9.57;;;;;;;6.29;87.28;102515.97;5161516;22;20052;-81
2022/04/15 04:28:31;;;;;;;17.50;9.02;;;;;;;6.27;87.00;102515.94;5013956;28;20109;-81
2022/04/15 04:30:56;;;;;;;17.25;8.60;;;;;;;6.28;87.43;102528.00;5014686;28;20194;-81
2022/04/15 04:33:22;;;;;;;17.95;9.60;;;;;;;6.28;89.71;102530.56;5014863;28;20026;-81
2022/04/15 04:35:50;;;;;;;19.98;11.35;;;;;;;6.23;90.67;102528.69;5014283;28;20062;-81
2022/04/15 04:38:16;;;;;;;20.63;11.98;;;;;;;6.21;90.18;102535.50;5014586;28;20033;-81
2022/04/15 04:40:41;;;;;;;19.42;10.57;;;;;;;6.16;88.50;102536.22;5014673;28;20030;-81
2022/04/15 04:43:08;;;;;;;15.32;8.13;;;;;;;6.18;87.35;102534.56;5014279;28;20030;-81
2022/04/15 04:45:34;;;;;;;16.10;8.57;;;;;;;6.21;88.47;102536.34;5014637;28;20038;-81
2022/04/15 04:48:03;;;;;;;16.17;8.30;;;;;;;6.18;88.43;102544.88;5014244;28;20028;-81
2022/04/15 04:50:28;;;;;;;17.90;9.43;;;;;;;6.14;91.22;102545.59;5014535;28;20034;-81
2022/04/15 04:52:54;;;;;;;14.35;7.60;;;;;;;6.13;88.35;102550.72;5013843;28;20064;-81
2022/04/15 04:55:20;;;;;;;15.27;7.95;;;;;;;6.16;90.43;102556.84;5014387;28;20034;-81
2022/04/15 04:57:46;;;;;;;16.90;8.50;;;;;;;6.15;90.66;102556.81;5014778;28;20030;-80
2022/04/15 05:00:13;;;;;;;14.52;7.43;;;;;;;6.18;88.06;102554.34;5014303;28;20018;-80
2022/04/15 05:02:39;;;;;;;16.42;8.48;;;;;;;6.23;91.46;102560.50;5013189;28;20041;-80
2022/04/15 05:05:05;;;;;;;17.05;8.82;;;;;;;6.22;89.74;102561.31;5014179;28;20041;-81
2022/04/15 05:07:31;;;;;;;15.98;7.78;;;;;;;6.28;90.01;102568.38;5014226;28;20018;-83
2022/04/15 05:09:56;;;;;;;17.20;8.90;;;;;;;6.30;90.75;102572.75;5013811;28;20041;-82
2022/04/15 05:12:21;;;;;;;20.75;11.85;;;;;;;6.29;92.16;102571.00;5014050;28;20048;-82
2022/04/15 05:14:47;;;;;;;21.23;11.43;;;;;;;6.29;93.75;102575.28;5013174;28;20049;-81
2022/04/15 05:17:12;;;;;;;19.37;10.70;;;;;;;6.29;92.64;102575.28;5013651;28;20168;-80
2022/04/15 05:19:37;;;;;;;18.17;8.90;;;;;;;6.33;92.35;102574.56;5013243;28;20017;-80
2022/04/15 05:22:03;;;;;;;20.77;11.03;;;;;;;6.30;94.06;102585.66;5014229;28;20040;-80
2022/04/15 05:24:28;;;;;;;21.17;11.40;;;;;;;6.27;93.90;102582.09;5013850;28;20474;-80
2022/04/15 05:26:53;;;;;;;21.58;11.40;;;;;;;6.25;94.59;102597.53;5013205;28;20041;-80
2022/04/15 05:29:19;;;;;;;19.63;10.55;;;;;;;6.27;93.38;102597.56;5013865;28;20038;-80
2022/04/15 05:31:44;;;;;;;17.60;9.07;;;;;;;6.29;91.91;102601.06;5013290;28;20528;-80
2022/04/15 05:34:09;;;;;;;17.40;8.80;;;;;;;6.37;92.23;102604.75;5013666;28;20108;-80
2022/04/15 05:36:34;;;;;;;19.98;10.82;;;;;;;6.40;93.03;102603.97;5013784;28;20096;-80
2022/04/15 05:39:00;;;;;;;17.53;8.93;;;;;;;6.44;92.82;102609.28;5013360;28;20068;-80
2022/04/15 05:41:26;;;;;;;19.42;10.93;;;;;;;6.45;94.13;102616.19;5014029;28;20022;-80
2022/04/15 05:43:51;;;;;;;20.27;10.53;;;;;;;6.46;94.66;102611.91;5013599;28;20032;-80
2022/04/15 05:46:20;;;;;;;22.48;11.88;;;;;;;6.48;94.16;102620.56;5013406;28;20026;-81
2022/04/15 05:48:45;;;;;;;19.25;9.80;;;;;;;6.52;91.90;102625.00;5012925;28;20076;-80
2022/04/15 05:51:11;;;;;;;21.42;11.05;;;;;;;6.57;94.24;102627.72;5013629;28;20462;-80
2022/04/15 05:53:36;;;;;;;19.47;9.90;;;;;;;6.60;93.57;102626.09;5012530;28;20064;-80
2022/04/15 05:56:02;;;;;;;19.67;10.07;;;;;;;6.63;94.22;102630.47;5013475;28;20053;-80
2022/04/15 05:58:27;;;;;;;21.17;11.60;;;;;;;6.67;92.92;102634.88;5012991;28;20025;-80
2022/04/15 06:00:54;;;;;;;20.00;10.18;;;;;;;6.68;92.87;102636.66;5013398;28;20056;-80
2022/04/15 06:03:22;;;;;;;19.40;10.13;;;;;;;6.76;91.89;102639.44;5013291;28;20025;-80
2022/04/15 06:05:48;;;;;;;22.73;12.07;;;;;;;6.72;94.08;102637.59;5013117;28;20301;-80
2022/04/15 06:08:14;;;;;;;19.03;10.20;;;;;;;6.76;91.99;102642.91;5013281;28;20026;-80
2022/04/15 06:10:40;;;;;;;19.27;9.68;;;;;;;6.80;92.10;102652.50;5012968;28;20022;-80
2022/04/15 06:13:09;;;;;;;17.27;8.38;;;;;;;6.88;92.06;102655.28;5012828;28;20107;-79
2022/04/15 06:15:40;;;;;;;17.88;8.05;;;;;;;6.89;91.27;102657.03;5013104;28;20088;-79
2022/04/15 06:18:06;;;;;;;15.00;7.30;;;;;;;6.94;91.29;102658.06;5013353;28;20034;-79
2022/04/15 06:20:31;;;;;;;14.33;6.90;;;;;;;7.00;90.81;102661.63;5012721;28;20037;-80
2022/04/15 06:22:56;;;;;;;15.85;7.47;;;;;;;7.05;92.17;102662.66;5012852;28;20628;-80
2022/04/15 06:25:22;;;;;;;22.93;12.40;;;;;;;6.97;93.53;102665.00;5012769;28;20045;-79
2022/04/15 06:27:49;;;;;;;22.80;12.90;;;;;;;6.95;93.48;102662.38;5011710;28;20581;-80
2022/04/15 06:30:15;;;;;;;21.33;11.40;;;;;;;7.01;92.71;102660.78;5012719;28;20084;-80
2022/04/15 06:32:40;;;;;;;21.00;11.27;;;;;;;7.04;92.82;102669.50;5012876;28;20025;-80
2022/04/15 06:35:07;;;;;;;22.00;12.13;;;;;;;7.04;93.43;102663.47;5012216;28;20040;-80
2022/04/15 06:37:32;;;;;;;19.02;9.93;;;;;;;7.11;91.96;102670.56;5012624;28;20436;-80
2022/04/15 06:39:58;;;;;;;20.70;11.38;;;;;;;7.14;93.48;102677.53;5012741;28;20026;-80
2022/04/15 06:42:24;;;;;;;24.45;13.32;;;;;;;7.11;94.01;102679.19;5012595;28;20022;-80
2022/04/15 06:44:50;;;;;;;22.40;12.38;;;;;;;7.15;93.29;102680.16;5012060;28;20034;-80
2022/04/15 06:47:16;;;;;;;19.10;10.00;;;;;;;7.20;91.56;102686.34;5012628;28;20076;-80
2022/04/15 06:49:42;;;;;;;19.10;10.07;;;;;;;7.25;92.16;102686.47;5012189;28;20425;-80
2022/04/15 06:52:08;;;;;;;18.35;9.20;;;;;;;7.29;91.82;102683.09;5012580;28;20449;-79
2022/04/15 06:54:33;;;;;;;17.75;8.50;;;;;;;7.33;91.31;102678.91;5013044;28;20093;-80
2022/04/15 06:56:58;;;;;;;18.98;9.30;;;;;;;7.37;91.65;102684.22;5011873;28;20018;-80
2022/04/15 06:59:24;;;;;;;15.43;7.70;;;;;;;7.42;90.80;102689.50;5012612;28;20486;-79
2022/04/15 07:01:49;;;;;;;13.45;6.82;;;;;;;7.48;90.83;102686.22;5011688;28;20037;-80
2022/04/15 07:04:14;;;;;;;16.98;7.90;;;;;;;7.53;91.15;102692.38;5012504;28;20026;-79
2022/04/15 07:06:39;;;;;;;14.80;6.90;;;;;;;7.56;89.86;102685.56;5012167;28;20033;-79
2022/04/15 07:09:08;;;;;;;15.60;7.67;;;;;;;7.58;90.17;102691.66;5012136;28;20034;-80
2022/04/15 07:11:33;;;;;;;20.15;9.43;;;;;;;7.58;91.31;102695.97;5012734;28;20084;-79
2022/04/15 07:13:58;;;;;;;23.63;13.03;;;;;;;7.44;92.08;102703.31;5012161;28;20429;-80
2022/04/15 07:16:26;;;;;;;24.17;13.67;;;;;;;7.39;92.55;102702.34;5011688;28;20049;-79
2022/04/15 07:18:52;;;;;;;25.13;13.32;;;;;;;7.38;92.26;102701.44;5012144;28;20030;-81
2022/04/15 07:21:18;;;;;;;23.87;13.00;;;;;;;7.35;92.58;102696.22;5012146;28;20037;-81
2022/04/15 07:23:44;;;;;;;24.27;13.75;;;;;;;7.29;92.87;102698.59;5011657;28;20375;-81
2022/04/15 07:26:09;;;;;;;22.20;12.33;;;;;;;7.34;92.58;102704.78;5012255;28;20061;-81
2022/04/15 07:28:34;;;;;;;22.00;11.75;;;;;;;7.39;92.04;102715.25;5012696;28;20026;-81
2022/04/15 07:31:00;;;;;;;23.15;13.70;;;;;;;7.40;92.63;102714.41;5011591;28;20022;-81
2022/04/15 07:33:25;;;;;;;24.83;14.13;;;;;;;7.39;92.35;102708.38;5011900;28;20080;-81
2022/04/15 07:35:50;;;;;;;21.87;11.60;;;;;;;7.46;92.09;102712.00;5012247;28;20026;-81
2022/04/15 07:38:18;;;;;;;21.30;11.47;;;;;;;7.52;92.23;102719.94;5012977;28;20022;-80
2022/04/15 07:40:44;;;;;;;20.75;10.93;;;;;;;7.58;92.30;102714.91;5015107;28;20512;-82
2022/04/15 07:43:09;;;;;;;23.80;12.13;;;;;;;7.63;91.31;102715.03;5015615;28;20037;-81
2022/04/15 07:45:34;;;;;;;22.17;11.52;;;;;;;7.68;91.33;102716.06;5015322;28;20121;-79
2022/04/15 07:47:59;;;;;;;24.35;12.70;;;;;;;7.69;91.06;102717.81;5015194;28;20359;-80
2022/04/15 07:50:25;;;;;;;23.83;12.70;;;;;;;7.70;90.79;102713.50;5015851;28;20045;-82
2022/04/15 07:52:56;;;;;;;20.90;10.57;;;;;;;7.75;90.59;102719.69;5015263;28;20360;-82
2022/04/15 07:55:21;;;;;;;20.88;11.00;;;;;;;7.80;89.60;102722.38;5015957;28;20041;-82
2022/04/15 07:57:46;;;;;;;20.30;10.90;;;;;;;7.81;89.70;102722.41;5015558;28;20389;-82
2022/04/15 08:00:12;;;;;;;20.03;9.97;;;;;;;7.89;89.55;102731.25;5015197;28;20034;-83
2022/04/15 08:02:37;;;;;;;18.87;10.13;;;;;;;7.95;88.00;102724.50;5015641;28;20114;-83
2022/04/15 08:05:13;;;;;;;17.90;9.40;;;;;;;8.07;88.18;102729.09;5015196;28;20026;-82
2022/04/15 08:07:38;;;;;;;16.40;8.30;;;;;;;8.23;88.08;102733.81;5015340;28;20045;-82
2022/04/15 08:10:04;;;;;;;16.37;7.87;;;;;;;8.37;87.22;102728.13;5015018;28;20033;-83
2022/04/15 08:12:29;;;;;;;14.43;7.13;;;;;;;8.54;86.91;102728.56;5014918;28;20064;-82
2022/04/15 08:14:55;;;;;;;17.02;8.27;;;;;;;8.68;82.72;102721.97;5014591;28;20026;-80
2022/04/15 08:17:21;;;;;;;17.20;8.57;;;;;;;8.75;82.84;102726.47;5015483;28;20367;-80
2022/04/15 08:19:46;;;;;;;16.17;8.53;;;;;;;8.85;80.73;102732.69;5014725;28;20052;-81
2022/04/15 08:22:11;;;;;;;17.20;7.57;;;;;;;8.94;82.71;102726.84;5015349;28;20466;-81
2022/04/15 08:24:42;;;;;;;14.57;7.17;;;;;;;9.12;81.84;102724.66;5014877;28;20026;-81
2022/04/15 08:27:07;;;;;;;17.38;8.63;;;;;;;9.18;77.19;102726.50;5014220;28;20402;-83
2022/04/15 08:29:35;;;;;;;17.40;8.77;;;;;;;9.18;79.10;102721.31;5014366;28;20034;-78
2022/04/15 08:32:00;;;;;;;18.80;8.35;;;;;;;9.23;78.54;102726.63;5014846;28;20030;-80
2022/04/15 08:34:25;;;;;;;17.80;8.53;;;;;;;9.23;79.10;102729.22;5014490;28;20483;-80
2022/04/15 08:36:51;;;;;;;15.20;7.93;;;;;;;9.29;77.90;102736.25;5014639;28;20493;-79
2022/04/15 08:39:16;;;;;;;14.07;7.10;;;;;;;9.39;79.91;102730.41;5014993;28;20084;-81
2022/04/15 08:41:44;;;;;;;15.37;7.10;;;;;;;9.52;78.10;102734.09;5014077;28;20108;-81
2022/04/15 08:44:10;;;;;;;11.98;6.50;;;;;;;9.59;79.69;102741.13;5014646;28;20451;-82
2022/04/15 08:46:35;;;;;;;11.60;6.10;;;;;;;9.72;80.06;102732.75;5015036;28;20026;-83
2022/04/15 08:49:05;;;;;;;11.90;6.40;;;;;;;9.94;77.79;102740.91;5013453;28;20080;-84
2022/04/15 08:51:34;;;;;;;13.90;6.88;;;;;;;10.08;76.70;102746.34;5014954;28;20029;-80
2022/04/15 08:54:00;;;;;;;13.18;6.68;;;;;;;10.21;77.38;102742.25;5014944;28;20026;-84
2022/04/15 08:56:25;;;;;;;11.90;6.97;;;;;;;10.28;74.99;102748.41;5013687;28;20125;-82
2022/04/15 08:58:50;;;;;;;12.13;6.17;;;;;;;10.37;76.82;102740.78;5014493;28;20474;-82
2022/04/15 09:01:16;;;;;;;12.50;6.27;;;;;;;10.47;75.12;102747.03;5014316;28;20084;-82
2022/04/15 09:03:42;;;;;;;10.03;5.67;;;;;;;10.59;75.97;102754.13;5013872;28;20021;-82
2022/04/15 09:06:15;;;;;;;8.50;4.82;;;;;;;10.67;76.56;102757.69;5014028;28;20029;-81
2022/04/15 09:09:00;;;;;;;7.05;4.10;;;;;;;10.83;77.38;102753.59;5014315;28;20033;-81
2022/04/15 09:11:31;;;;;;;10.18;5.75;;;;;;;10.92;74.16;102753.72;5013367;28;20080;-82
2022/04/15 09:13:56;;;;;;;7.75;4.80;;;;;;;10.95;75.58;102756.38;5014036;28;20026;-81
2022/04/15 09:16:22;;;;;;;9.40;5.73;;;;;;;10.97;72.79;102756.41;5013850;28;20072;-84
2022/04/15 09:18:47;;;;;;;12.43;6.18;;;;;;;10.96;73.42;102763.31;5013842;28;20378;-79
2022/04/15 09:21:21;;;;;;;9.03;5.20;;;;;;;11.06;73.28;102760.84;5014080;28;20034;-78
2022/04/15 09:23:51;;;;;;;8.80;5.00;;;;;;;11.15;72.98;102760.97;5013292;28;20030;-84
2022/04/15 09:26:17;;;;;;;6.85;4.72;;;;;;;11.33;70.55;102760.31;5012220;28;20542;-80
2022/04/15 09:28:43;;;;;;;8.30;5.10;;;;;;;11.58;71.70;102758.03;5013872;28;20022;-79
2022/04/15 09:31:13;;;;;;;8.57;5.00;;;;;;;11.79;69.15;102757.38;5013635;28;20485;-81
2022/04/15 09:33:59;;;;;;;10.65;5.63;;;;;;;11.97;68.44;102755.81;5013003;28;20026;-80
2022/04/15 09:36:30;;;;;;;11.88;5.80;;;;;;;12.13;65.11;102764.66;5005134;28;20073;-80
2022/04/15 09:39:02;;;;;;;10.88;5.68;;;;;;;12.28;66.54;102766.53;5013356;28;20592;-76
2022/04/15 09:41:29;;;;;;;8.18;5.00;;;;;;;12.58;63.62;102765.03;5013723;28;20087;-78
2022/04/15 09:43:57;;;;;;;9.40;5.47;;;;;;;12.79;64.36;102775.59;5012988;28;20474;-78
2022/04/15 09:46:22;;;;;;;7.85;4.93;;;;;;;12.80;66.44;102779.97;5013421;28;20038;-80
2022/04/15 09:49:06;;;;;;;7.05;4.30;;;;;;;12.79;67.44;102772.13;5013672;28;20068;-80
2022/04/15 09:51:37;;;;;;;5.97;4.28;;;;;;;12.83;62.70;102776.50;5012945;28;20108;-81
2022/04/15 09:54:04;;;;;;;7.82;4.70;;;;;;;12.76;66.21;102774.72;5013246;28;20084;-77
2022/04/15 09:56:32;;;;;;;5.28;4.00;;;;;;;12.78;66.99;102772.97;5013841;28;20404;-78
2022/04/15 09:59:05;;;;;;;8.32;5.32;;;;;;;12.61;62.01;102776.34;5012761;28;20386;-78
2022/04/15 10:01:32;;;;;;;7.10;4.82;;;;;;;12.58;65.85;102770.25;5012911;28;20050;-81
2022/04/15 10:03:57;;;;;;;;;;;;;;;12.51;63.27;102767.59;5013495;28;20026;-77
2022/04/15 10:06:26;;;;;;;8.47;5.00;;;;;;;12.52;64.24;102769.34;5012894;28;19913;-78
2022/04/15 10:08:52;;;;;;;9.32;5.75;;;;;;;12.59;64.00;102767.66;5012998;28;20454;-78
2022/04/15 10:11:18;;;;;;;7.65;5.00;;;;;;;12.94;63.18;102771.34;5013337;28;20060;-77
2022/04/15 10:13:45;;;;;;;9.45;5.30;;;;;;;13.12;62.65;102761.03;5012268;28;20062;-80
2022/04/15 10:16:11;;;;;;;9.23;5.18;;;;;;;13.36;61.03;102762.00;5013101;28;20029;-81
2022/04/15 10:18:36;;;;;;;11.40;6.10;;;;;;;13.20;60.30;102775.81;5012746;28;20030;-80
2022/04/15 10:21:03;;;;;;;10.17;5.40;;;;;;;13.19;61.54;102766.25;5012600;28;20066;-80
2022/04/15 10:23:29;;;;;;;;;;;;;;;13.32;62.51;102772.41;5013717;28;20025;-81
2022/04/15 10:25:55;;;;;;;5.60;3.70;;;;;;;13.42;62.71;102771.59;5012296;28;19917;-78
2022/04/15 10:28:38;;;;;;;4.55;3.55;;;;;;;13.41;61.89;102765.50;5012821;28;20042;-77
2022/04/15 10:31:08;;;;;;;4.30;3.40;;;;;;;13.37;60.91;102771.56;5013005;28;20614;-76
2022/04/15 10:33:34;;;;;;;6.18;4.03;;;;;;;13.24;60.16;102774.97;4993286;28;20030;-76
2022/04/15 10:36:21;;;;;;;5.57;4.18;;;;;;;13.12;61.92;102763.63;4993044;28;20049;-78
2022/04/15 10:39:02;;;;;;;4.45;3.47;;;;;;;13.12;61.38;102763.63;4993154;28;20391;-77
2022/04/15 10:41:40;;;;;;;10.50;5.68;;;;;;;13.10;59.70;102762.75;5009809;28;20053;-79
2022/04/15 10:44:05;;;;;;;10.18;5.85;;;;;;;13.10;59.43;102761.88;5012437;28;20033;-80
2022/04/15 10:46:31;;;;;;;9.27;5.63;;;;;;;13.28;59.56;102758.50;5012926;28;20034;-81
2022/04/15 10:49:01;;;;;;;8.33;5.20;;;;;;;13.47;61.46;102754.22;5011993;28;20025;-81
2022/04/15 10:51:31;;;;;;;9.18;5.47;;;;;;;13.82;60.33;102749.97;5012744;28;20470;-80
2022/04/15 10:54:45;;;;;;;9.63;5.28;;;;;;;14.12;58.63;102745.63;5012010;28;20033;-81
2022/04/15 10:57:21;;;;;;;7.43;4.63;;;;;;;14.24;58.28;102748.25;5012962;28;20030;-83
2022/04/15 11:02:51;;;;;;;7.15;4.80;;;;;;;14.25;58.68;102750.00;5011965;28;20322;-80
2022/04/15 11:05:52;;;;;;;8.75;5.47;;;;;;;13.94;56.05;102752.59;5012609;28;20095;-80
2022/04/15 11:13:33;;;;;;;6.43;4.40;;;;;;;13.77;60.13;102743.84;5000367;28;20046;-79
2022/04/15 11:16:04;;;;;;;7.45;4.55;;;;;;;13.92;59.29;102741.28;4996042;28;20050;-80
2022/04/15 11:18:50;;;;;;;7.25;4.93;;;;;;;13.97;58.25;102755.19;5000848;28;20060;-79
2022/04/15 11:21:30;;;;;;;7.40;4.35;;;;;;;13.97;57.61;102754.34;5016413;28;20029;-80
2022/04/15 11:23:57;;;;;;;5.90;4.13;;;;;;;13.93;56.76;102755.19;5015804;28;20038;-79
2022/04/15 11:26:25;;;;;;;8.48;5.28;;;;;;;13.83;57.37;102751.72;5015311;28;20044;-79
2022/04/15 11:28:53;;;;;;;8.88;5.47;;;;;;;13.83;58.18;102743.88;5015984;28;20033;-80
2022/04/15 11:31:28;;;;;;;6.40;4.40;;;;;;;14.03;58.87;102749.09;4999638;28;20058;-79
2022/04/15 11:34:01;;;;;;;4.38;3.50;;;;;;;14.36;57.54;102744.75;4996347;28;20018;-77